Time;durP1;ratioP1;P1;durP2;ratioP2;P2;SDS_P1;SDS_P2;PMS_P1;PMS_P2;Temp;Humidity;BMP_temperature;BMP_pressure;BME280_temperature;BME280_humidity;BME280_pressure;Samples;Min_cycle;Max_cycle;Signal;HPM_P1;HPM_P2
2021/06/10 00:02:15;;;;;;;17.45;14.07;;;11.90;99.90;;;;;;4987983;28;20042;-79
2021/06/10 00:04:41;;;;;;;18.67;14.13;;;11.90;99.90;;;;;;4972892;28;20591;-79
2021/06/10 00:07:06;;;;;;;17.90;13.85;;;11.90;99.90;;;;;;4972914;28;20029;-79
2021/06/10 00:09:32;;;;;;;16.90;14.85;;;11.90;99.90;;;;;;4969381;28;20428;-79
2021/06/10 00:11:58;;;;;;;16.90;14.23;;;11.90;99.90;;;;;;4973079;28;20023;-79
2021/06/10 00:14:23;;;;;;;16.27;13.23;;;11.90;99.90;;;;;;4989190;28;20027;-79
2021/06/10 00:16:49;;;;;;;15.25;12.25;;;11.90;99.90;;;;;;4972774;28;20030;-79
2021/06/10 00:19:15;;;;;;;14.07;11.23;;;11.90;99.90;;;;;;4969203;28;20035;-79
2021/06/10 00:21:41;;;;;;;17.05;12.15;;;11.80;99.90;;;;;;4970756;28;20057;-79
2021/06/10 00:24:07;;;;;;;16.02;13.70;;;11.80;99.90;;;;;;4974130;28;20031;-79
2021/06/10 00:26:33;;;;;;;20.15;12.90;;;11.90;99.90;;;;;;4974837;28;20031;-80
2021/06/10 00:28:58;;;;;;;19.02;14.48;;;11.90;99.90;;;;;;4974162;28;20503;-79
2021/06/10 00:31:24;;;;;;;17.27;13.73;;;11.90;99.90;;;;;;4971951;28;20045;-79
2021/06/10 00:33:50;;;;;;;16.55;13.40;;;12.00;99.90;;;;;;4968575;28;20178;-79
2021/06/10 00:36:16;;;;;;;17.02;13.15;;;12.00;99.90;;;;;;4965740;28;20030;-79
2021/06/10 00:38:41;;;;;;;19.95;17.33;;;12.00;99.90;;;;;;4972947;28;20038;-79
2021/06/10 00:41:07;;;;;;;18.95;15.93;;;12.10;99.90;;;;;;4972596;28;20111;-79
2021/06/10 00:43:33;;;;;;;20.42;15.75;;;12.10;99.90;;;;;;4973818;28;20030;-80
2021/06/10 00:45:58;;;;;;;20.13;15.80;;;12.20;99.90;;;;;;4972544;28;20089;-79
2021/06/10 00:48:24;;;;;;;18.30;15.20;;;12.20;99.90;;;;;;4972989;28;20056;-79
2021/06/10 00:50:51;;;;;;;18.50;14.95;;;12.30;99.90;;;;;;4973131;28;20110;-79
2021/06/10 00:53:22;;;;;;;21.05;16.05;;;12.30;99.90;;;;;;4987701;28;20126;-79
2021/06/10 00:55:59;;;;;;;18.88;15.80;;;12.30;99.90;;;;;;4973761;28;20035;-79
2021/06/10 00:58:26;;;;;;;23.10;19.05;;;12.30;99.90;;;;;;4973460;28;20023;-79
2021/06/10 01:00:53;;;;;;;19.52;15.70;;;12.40;99.90;;;;;;4972642;28;20037;-79
2021/06/10 01:03:19;;;;;;;19.95;17.08;;;12.40;99.90;;;;;;4971728;28;20035;-79
2021/06/10 01:05:49;;;;;;;27.65;19.20;;;12.40;99.90;;;;;;4986069;28;20030;-79
2021/06/10 01:08:46;;;;;;;23.17;19.05;;;12.40;99.90;;;;;;4972392;28;20507;-79
2021/06/10 01:11:29;;;;;;;24.23;20.40;;;12.40;99.90;;;;;;4953647;28;20027;-79
2021/06/10 01:14:02;;;;;;;23.75;19.70;;;12.50;99.90;;;;;;4965638;28;20037;-79
2021/06/10 01:16:30;;;;;;;;;;;12.40;99.90;;;;;;4970727;28;20117;-79
2021/06/10 01:18:58;;;;;;;19.38;15.63;;;12.40;99.90;;;;;;4972522;28;19910;-79
2021/06/10 01:21:24;;;;;;;21.52;17.33;;;12.30;99.90;;;;;;4971811;28;20037;-79
2021/06/10 01:23:50;;;;;;;22.10;17.27;;;12.30;99.90;;;;;;4972633;28;20050;-79
2021/06/10 01:26:34;;;;;;;24.58;20.45;;;12.40;99.90;;;;;;4972109;28;20105;-79
2021/06/10 01:29:02;;;;;;;21.30;18.02;;;12.30;99.90;;;;;;4968604;28;20023;-79
2021/06/10 01:31:29;;;;;;;22.15;17.38;;;12.30;99.90;;;;;;4968291;28;20023;-79
2021/06/10 01:34:00;;;;;;;22.40;17.20;;;12.40;99.90;;;;;;4972220;28;20061;-79
2021/06/10 01:36:29;;;;;;;22.13;18.48;;;12.30;99.90;;;;;;4968805;28;20026;-79
2021/06/10 01:38:57;;;;;;;25.10;17.98;;;12.30;99.90;;;;;;4972385;28;20087;-79
2021/06/10 01:41:25;;;;;;;20.05;15.65;;;12.30;99.90;;;;;;4973094;28;20483;-79
2021/06/10 01:43:51;;;;;;;24.67;16.73;;;12.20;99.90;;;;;;4972620;28;20027;-79
2021/06/10 01:46:21;;;;;;;21.58;17.63;;;12.20;99.90;;;;;;4971966;28;20431;-79
2021/06/10 01:48:48;;;;;;;19.83;16.20;;;12.10;99.90;;;;;;4972974;28;20400;-79
2021/06/10 01:51:16;;;;;;;23.17;18.38;;;12.10;99.90;;;;;;4971492;28;20034;-79
2021/06/10 01:53:45;;;;;;;24.38;16.33;;;12.00;99.90;;;;;;4971524;28;20089;-79
2021/06/10 01:56:12;;;;;;;25.23;17.23;;;11.90;99.90;;;;;;4972896;28;20085;-79
2021/06/10 01:58:38;;;;;;;24.80;18.88;;;11.90;99.90;;;;;;4972806;28;20031;-79
2021/06/10 02:01:05;;;;;;;26.00;19.58;;;11.90;99.90;;;;;;4971905;28;20066;-79
2021/06/10 02:03:32;;;;;;;25.23;18.25;;;11.90;99.90;;;;;;4971969;28;20396;-79
2021/06/10 02:05:59;;;;;;;25.45;18.73;;;11.80;99.90;;;;;;4971215;28;20435;-79
2021/06/10 02:08:25;;;;;;;31.52;20.77;;;11.80;99.90;;;;;;4971767;28;20033;-79
2021/06/10 02:10:56;;;;;;;22.17;17.52;;;11.80;99.90;;;;;;4971352;28;20114;-79
2021/06/10 02:13:26;;;;;;;22.70;18.42;;;11.70;99.90;;;;;;4972630;28;20019;-79
2021/06/10 02:15:55;;;;;;;24.55;20.15;;;11.70;99.90;;;;;;4970767;28;20061;-78
2021/06/10 02:18:21;;;;;;;27.58;21.15;;;11.60;99.90;;;;;;4963908;28;20399;-79
2021/06/10 02:20:47;;;;;;;28.30;21.85;;;11.60;99.90;;;;;;4971942;28;20023;-79
2021/06/10 02:23:12;;;;;;;27.60;22.38;;;11.50;99.90;;;;;;4970473;28;20407;-79
2021/06/10 02:25:38;;;;;;;24.67;20.35;;;11.40;99.90;;;;;;4972597;28;20031;-79
2021/06/10 02:28:05;;;;;;;26.00;21.63;;;11.40;99.90;;;;;;4972403;28;20142;-79
2021/06/10 02:30:32;;;;;;;28.02;22.80;;;11.30;99.90;;;;;;4969208;28;20023;-79
2021/06/10 02:32:58;;;;;;;30.10;23.63;;;11.20;99.90;;;;;;4968664;28;20124;-79
2021/06/10 02:35:23;;;;;;;26.67;21.15;;;11.30;99.90;;;;;;4972662;28;20499;-79
2021/06/10 02:37:51;;;;;;;28.25;24.08;;;11.30;99.90;;;;;;4987844;28;20129;-79
2021/06/10 02:40:30;;;;;;;31.58;23.15;;;11.30;99.90;;;;;;4991239;28;20537;-79
2021/06/10 02:42:57;;;;;;;26.52;22.67;;;11.30;99.90;;;;;;4991409;28;20031;-79
2021/06/10 02:45:23;;;;;;;26.90;22.08;;;11.30;99.90;;;;;;4976784;28;20102;-79
2021/06/10 02:47:51;;;;;;;26.17;21.20;;;11.30;99.90;;;;;;4974975;28;20599;-79
2021/06/10 02:50:18;;;;;;;30.02;23.60;;;11.30;99.90;;;;;;4975017;28;20106;-79
2021/06/10 02:52:48;;;;;;;36.58;25.45;;;11.20;99.90;;;;;;4974370;28;20031;-79
2021/06/10 02:55:16;;;;;;;34.10;26.23;;;11.20;99.90;;;;;;4975553;28;20031;-79
2021/06/10 02:57:44;;;;;;;30.48;23.92;;;11.20;99.90;;;;;;4990877;28;20034;-79
2021/06/10 03:00:11;;;;;;;27.35;21.50;;;11.20;99.90;;;;;;4975005;28;20407;-79
2021/06/10 03:02:37;;;;;;;31.73;23.55;;;11.20;99.90;;;;;;4959849;28;20038;-79
2021/06/10 03:05:04;;;;;;;32.45;24.30;;;11.20;99.90;;;;;;4975142;28;20073;-79
2021/06/10 03:07:33;;;;;;;29.63;21.30;;;11.20;99.90;;;;;;4973952;28;20504;-79
2021/06/10 03:09:59;;;;;;;26.55;20.17;;;11.20;99.90;;;;;;4974133;28;20073;-79
2021/06/10 03:12:24;;;;;;;27.33;20.13;;;11.20;99.90;;;;;;4975616;28;20035;-79
2021/06/10 03:14:51;;;;;;;31.88;23.70;;;11.20;99.90;;;;;;4975321;28;20062;-79
2021/06/10 03:17:17;;;;;;;27.67;21.88;;;11.30;99.90;;;;;;4975362;28;20081;-79
2021/06/10 03:19:44;;;;;;;26.70;19.90;;;11.30;99.90;;;;;;4989117;28;20109;-79
2021/06/10 03:22:10;;;;;;;25.27;20.58;;;11.30;99.90;;;;;;4973569;28;20027;-79
2021/06/10 03:24:37;;;;;;;26.27;20.13;;;11.30;99.90;;;;;;4975192;28;20467;-79
2021/06/10 03:27:05;;;;;;;25.70;18.85;;;11.30;99.90;;;;;;4975383;28;20022;-79
2021/06/10 03:29:30;;;;;;;22.85;18.73;;;11.20;99.90;;;;;;4970828;28;20629;-79
2021/06/10 03:31:57;;;;;;;24.92;20.08;;;11.20;99.90;;;;;;4973368;28;20042;-79
2021/06/10 03:34:23;;;;;;;24.50;19.70;;;11.20;99.90;;;;;;4975160;28;20026;-79
2021/06/10 03:36:48;;;;;;;27.88;18.60;;;11.20;99.90;;;;;;4973576;28;20035;-79
2021/06/10 03:39:17;;;;;;;25.83;19.33;;;11.30;99.90;;;;;;4975190;28;20499;-79
2021/06/10 03:41:43;;;;;;;24.30;19.73;;;11.30;99.90;;;;;;4975117;28;20034;-79
2021/06/10 03:44:10;;;;;;;24.48;19.73;;;11.30;99.90;;;;;;4974662;28;20082;-79
2021/06/10 03:46:36;;;;;;;25.15;19.52;;;11.30;99.90;;;;;;4974265;28;20509;-79
2021/06/10 03:49:02;;;;;;;25.77;20.23;;;11.40;99.90;;;;;;4975023;28;20562;-79
2021/06/10 03:51:28;;;;;;;27.15;19.83;;;11.40;99.90;;;;;;4972039;28;20026;-79
2021/06/10 03:53:55;;;;;;;28.98;20.83;;;11.50;99.90;;;;;;4974180;28;20023;-79
2021/06/10 03:56:21;;;;;;;31.70;20.13;;;11.50;99.90;;;;;;4973675;28;20041;-79
2021/06/10 03:58:46;;;;;;;27.67;20.40;;;11.60;99.90;;;;;;4989508;28;20559;-79
2021/06/10 04:01:12;;;;;;;27.05;21.27;;;11.60;99.90;;;;;;4974765;28;20063;-79
2021/06/10 04:03:39;;;;;;;29.45;21.88;;;11.70;99.90;;;;;;4973656;28;20042;-78
2021/06/10 04:06:04;;;;;;;31.50;21.95;;;11.80;99.90;;;;;;4973738;28;20480;-79
2021/06/10 04:08:30;;;;;;;38.17;27.40;;;11.80;99.90;;;;;;4973398;28;20034;-78
2021/06/10 04:10:56;;;;;;;34.08;23.48;;;11.90;99.90;;;;;;4973317;28;20026;-79
2021/06/10 04:13:21;;;;;;;34.03;23.80;;;12.00;99.90;;;;;;4974249;28;20073;-79
2021/06/10 04:15:47;;;;;;;34.08;23.10;;;12.10;99.90;;;;;;4974311;28;20042;-79
2021/06/10 04:18:18;;;;;;;31.58;22.73;;;12.20;99.90;;;;;;4970927;28;20027;-79
2021/06/10 04:20:49;;;;;;;29.27;21.45;;;12.30;99.90;;;;;;4988470;28;20045;-79
2021/06/10 04:23:15;;;;;;;28.27;20.20;;;12.30;99.90;;;;;;4973383;28;20062;-79
2021/06/10 04:25:41;;;;;;;28.52;20.70;;;12.50;99.90;;;;;;4988847;28;20054;-79
2021/06/10 04:28:06;;;;;;;29.00;21.38;;;12.60;99.90;;;;;;4969539;28;20045;-79
2021/06/10 04:30:32;;;;;;;35.25;24.98;;;12.70;99.90;;;;;;4977081;28;20058;-79
2021/06/10 04:32:58;;;;;;;37.78;27.90;;;12.90;99.90;;;;;;4974160;28;20110;-78
2021/06/10 04:35:24;;;;;;;49.08;34.38;;;13.10;99.90;;;;;;4970139;28;20135;-79
2021/06/10 04:37:49;;;;;;;47.63;34.92;;;13.20;99.90;;;;;;4973023;28;20038;-79
2021/06/10 04:40:15;;;;;;;50.95;36.05;;;13.40;99.90;;;;;;4969479;28;20031;-78
2021/06/10 04:42:41;;;;;;;61.92;43.88;;;13.60;99.90;;;;;;4956090;28;20038;-79
2021/06/10 04:45:07;;;;;;;59.63;45.15;;;13.70;99.90;;;;;;4969439;28;20023;-79
2021/06/10 04:47:33;;;;;;;70.20;53.70;;;13.90;99.90;;;;;;4954507;28;20507;-79
2021/06/10 04:49:58;;;;;;;45.90;29.70;;;14.10;99.90;;;;;;4971194;28;20027;-79
2021/06/10 04:52:24;;;;;;;34.53;25.58;;;14.20;99.90;;;;;;4986216;28;20095;-79
2021/06/10 04:54:49;;;;;;;35.17;28.50;;;14.30;99.90;;;;;;4973350;28;20031;-79
2021/06/10 04:57:15;;;;;;;30.85;23.95;;;14.50;99.90;;;;;;4988252;28;20034;-79
2021/06/10 04:59:41;;;;;;;30.15;23.13;;;14.70;99.90;;;;;;4970784;28;20027;-79
2021/06/10 05:02:06;;;;;;;32.30;25.55;;;14.80;99.90;;;;;;4973702;28;20034;-79
2021/06/10 05:04:32;;;;;;;28.77;22.77;;;14.90;99.90;;;;;;4971358;28;20125;-79
2021/06/10 05:06:58;;;;;;;30.52;23.90;;;15.00;99.90;;;;;;4986957;28;20413;-79
2021/06/10 05:09:24;;;;;;;47.40;36.15;;;15.10;99.90;;;;;;4973248;28;20019;-80
2021/06/10 05:11:49;;;;;;;46.78;38.25;;;15.30;99.90;;;;;;4973327;28;20078;-79
2021/06/10 05:14:16;;;;;;;33.22;26.00;;;15.50;99.90;;;;;;4973316;28;20562;-79
2021/06/10 05:16:43;;;;;;;26.70;20.35;;;15.70;99.90;;;;;;4973318;28;20030;-79
2021/06/10 05:19:08;;;;;;;23.05;18.05;;;15.60;99.90;;;;;;4973481;28;20037;-79
2021/06/10 05:21:34;;;;;;;23.67;18.52;;;15.80;99.90;;;;;;4971745;28;20492;-79
2021/06/10 05:23:59;;;;;;;23.77;18.20;;;15.90;99.90;;;;;;4972805;28;20387;-79
2021/06/10 05:26:25;;;;;;;25.65;19.27;;;16.00;99.90;;;;;;4973209;28;20414;-79
2021/06/10 05:28:51;;;;;;;28.80;17.92;;;16.20;99.90;;;;;;4973054;28;20097;-79
2021/06/10 05:31:17;;;;;;;21.35;17.95;;;16.30;99.90;;;;;;4972331;28;20025;-79
2021/06/10 05:33:42;;;;;;;27.33;20.65;;;16.40;99.90;;;;;;4988071;28;20542;-79
2021/06/10 05:36:08;;;;;;;23.38;18.83;;;16.50;99.90;;;;;;4972235;28;20035;-79
2021/06/10 05:38:34;;;;;;;21.33;15.10;;;16.50;99.90;;;;;;4972127;28;20121;-79
2021/06/10 05:40:59;;;;;;;21.38;16.25;;;16.70;99.90;;;;;;4973049;28;20046;-79
2021/06/10 05:43:25;;;;;;;21.30;16.48;;;16.80;99.90;;;;;;4973008;28;20035;-79
2021/06/10 05:45:51;;;;;;;19.90;15.48;;;16.90;99.90;;;;;;4972098;28;20093;-79
2021/06/10 05:48:18;;;;;;;19.90;13.02;;;17.00;99.90;;;;;;4973048;28;20026;-79
2021/06/10 05:50:47;;;;;;;21.77;16.92;;;17.30;99.90;;;;;;4972342;28;20055;-79
2021/06/10 05:53:15;;;;;;;22.35;16.33;;;17.20;99.90;;;;;;4972079;28;20038;-79
2021/06/10 05:55:42;;;;;;;17.33;13.52;;;17.50;99.90;;;;;;4987796;28;20035;-79
2021/06/10 05:58:08;;;;;;;15.82;12.38;;;17.50;99.90;;;;;;4968460;28;20503;-79
2021/06/10 06:00:33;;;;;;;17.55;13.73;;;17.80;99.90;;;;;;4975800;28;20023;-79
2021/06/10 06:03:03;;;;;;;19.92;13.95;;;17.90;99.90;;;;;;4971437;28;20041;-79
2021/06/10 06:05:29;;;;;;;17.02;13.80;;;18.00;99.90;;;;;;4971626;28;20084;-79
2021/06/10 06:07:54;;;;;;;20.92;12.60;;;18.10;99.90;;;;;;4987694;28;20057;-79
2021/06/10 06:10:20;;;;;;;19.27;12.60;;;18.20;99.90;;;;;;4975064;28;20479;-79
2021/06/10 06:12:49;;;;;;;16.50;12.23;;;18.40;99.90;;;;;;4975283;28;20027;-79
2021/06/10 06:15:15;;;;;;;16.85;12.38;;;18.50;99.90;;;;;;4975735;28;20503;-79
2021/06/10 06:17:43;;;;;;;16.17;11.13;;;18.70;99.90;;;;;;4976481;28;20031;-79
2021/06/10 06:20:09;;;;;;;14.52;10.63;;;18.60;99.90;;;;;;4975656;28;20033;-79
2021/06/10 06:22:37;;;;;;;14.43;10.45;;;18.70;99.90;;;;;;4975366;28;20062;-79
2021/06/10 06:25:03;;;;;;;14.07;10.98;;;18.70;99.90;;;;;;4975979;28;20030;-79
2021/06/10 06:27:28;;;;;;;17.48;12.10;;;18.60;99.90;;;;;;4976246;28;20106;-79
2021/06/10 06:29:54;;;;;;;12.10;10.18;;;18.80;99.90;;;;;;4991108;28;20031;-79
2021/06/10 06:32:20;;;;;;;14.82;10.75;;;18.70;99.90;;;;;;4976469;28;20031;-79
2021/06/10 06:34:48;;;;;;;12.95;10.40;;;18.70;99.90;;;;;;4965839;28;20042;-79
2021/06/10 06:37:15;;;;;;;14.05;10.95;;;18.90;99.90;;;;;;4971854;28;20076;-79
2021/06/10 06:39:41;;;;;;;15.13;10.02;;;18.90;99.90;;;;;;4972627;28;20037;-79
2021/06/10 06:42:06;;;;;;;12.20;10.75;;;19.10;99.90;;;;;;4973316;28;20487;-79
2021/06/10 06:44:32;;;;;;;14.48;11.10;;;19.30;99.90;;;;;;4970700;28;20574;-79
2021/06/10 06:46:57;;;;;;;14.32;11.18;;;19.40;99.90;;;;;;4972257;28;20089;-79
2021/06/10 06:49:23;;;;;;;13.65;10.20;;;19.50;99.90;;;;;;4972138;28;20062;-79
2021/06/10 06:51:49;;;;;;;13.93;9.68;;;19.30;99.90;;;;;;4973022;28;20023;-79
2021/06/10 06:54:14;;;;;;;16.95;9.65;;;19.90;99.90;;;;;;4970905;28;20034;-79
2021/06/10 06:56:40;;;;;;;15.43;9.85;;;19.70;99.90;;;;;;4963868;28;20040;-79
2021/06/10 06:59:05;;;;;;;14.25;9.27;;;19.90;99.90;;;;;;4969572;28;20038;-80
2021/06/10 07:01:31;;;;;;;12.00;10.00;;;20.00;99.90;;;;;;4970106;28;20041;-80
2021/06/10 07:03:56;;;;;;;14.60;9.55;;;20.00;99.90;;;;;;4969447;28;20031;-80
2021/06/10 07:06:22;;;;;;;11.15;8.82;;;20.40;99.90;;;;;;4972560;28;20026;-79
2021/06/10 07:08:48;;;;;;;12.05;9.02;;;20.30;99.90;;;;;;4976336;28;20029;-79
2021/06/10 07:11:13;;;;;;;11.10;8.82;;;20.40;99.90;;;;;;4971098;28;20042;-79
2021/06/10 07:13:39;;;;;;;11.85;8.75;;;20.60;99.90;;;;;;4972328;28;20031;-79
2021/06/10 07:16:05;;;;;;;13.15;8.63;;;20.50;99.90;;;;;;4969968;28;20050;-80
2021/06/10 07:18:31;;;;;;;11.38;8.50;;;20.70;99.90;;;;;;4987077;28;20031;-79
2021/06/10 07:20:56;;;;;;;9.23;8.15;;;20.70;99.90;;;;;;4970329;28;20573;-78
2021/06/10 07:23:22;;;;;;;9.80;8.48;;;20.90;99.90;;;;;;4972068;28;20484;-79
2021/06/10 07:25:48;;;;;;;13.80;9.23;;;21.00;99.90;;;;;;4971449;28;20511;-79
2021/06/10 07:28:14;;;;;;;16.52;9.35;;;21.00;99.90;;;;;;4961011;28;20032;-79
2021/06/10 07:30:40;;;;;;;12.60;9.88;;;21.10;99.90;;;;;;4970742;28;20114;-79
2021/06/10 07:33:06;;;;;;;12.90;10.00;;;21.10;99.90;;;;;;4968421;28;20105;-79
2021/06/10 07:35:35;;;;;;;10.55;8.82;;;21.00;99.90;;;;;;4974797;28;20022;-79
2021/06/10 07:38:04;;;;;;;13.73;9.10;;;21.20;99.90;;;;;;4969024;28;20127;-79
2021/06/10 07:40:29;;;;;;;28.27;10.52;;;21.30;99.90;;;;;;4955673;29;20439;-79
2021/06/10 07:42:57;;;;;;;15.50;10.30;;;21.50;99.90;;;;;;4962559;28;20027;-79
2021/06/10 07:45:25;;;;;;;14.02;10.60;;;21.20;99.90;;;;;;4967408;28;20102;-78
2021/06/10 07:47:51;;;;;;;15.63;9.48;;;21.30;99.90;;;;;;4974050;28;20049;-78
2021/06/10 07:50:17;;;;;;;12.10;10.25;;;21.30;99.90;;;;;;4974734;28;20041;-79
2021/06/10 07:52:42;;;;;;;15.68;10.30;;;21.40;99.90;;;;;;4971407;28;20034;-79
2021/06/10 07:55:08;;;;;;;13.77;11.20;;;21.50;99.90;;;;;;4973037;28;20491;-79
2021/06/10 07:57:35;;;;;;;15.50;12.25;;;21.50;99.90;;;;;;4973873;28;20484;-79
2021/06/10 08:00:00;;;;;;;20.20;11.10;;;21.30;99.90;;;;;;4973780;28;20062;-79
2021/06/10 08:02:26;;;;;;;13.27;10.80;;;21.30;99.90;;;;;;4989606;28;20518;-79
2021/06/10 08:04:52;;;;;;;19.67;11.40;;;21.50;99.90;;;;;;4973360;28;20038;-79
2021/06/10 08:07:18;;;;;;;15.27;10.40;;;21.70;99.90;;;;;;4973917;28;20038;-79
2021/06/10 08:09:43;;;;;;;13.25;11.00;;;21.90;99.90;;;;;;4973913;28;20106;-79
2021/06/10 08:12:09;;;;;;;15.23;11.45;;;21.80;99.90;;;;;;4973580;28;20027;-79
2021/06/10 08:14:35;;;;;;;14.65;10.65;;;21.70;99.90;;;;;;4974477;28;20027;-79
2021/06/10 08:17:00;;;;;;;16.17;9.85;;;21.50;99.90;;;;;;4973813;28;20085;-79
2021/06/10 08:19:26;;;;;;;12.07;9.45;;;21.50;99.90;;;;;;4972799;28;20039;-79
2021/06/10 08:21:52;;;;;;;12.10;9.73;;;21.80;99.90;;;;;;4973417;28;20058;-79
2021/06/10 08:24:21;;;;;;;12.55;9.65;;;21.90;99.90;;;;;;4973419;28;20428;-80
2021/06/10 08:26:48;;;;;;;12.95;10.05;;;22.00;99.90;;;;;;4972573;28;20039;-79
2021/06/10 08:29:14;;;;;;;12.82;10.27;;;22.10;99.90;;;;;;4974082;28;20078;-79
2021/06/10 08:31:39;;;;;;;14.27;8.60;;;22.10;99.90;;;;;;4973369;28;20023;-79
2021/06/10 08:34:05;;;;;;;13.57;9.35;;;22.30;99.90;;;;;;4988740;28;20077;-79
2021/06/10 08:36:31;;;;;;;13.57;9.27;;;22.30;99.90;;;;;;4972571;28;20121;-79
2021/06/10 08:38:57;;;;;;;22.67;9.48;;;22.50;99.90;;;;;;4974028;28;20065;-79
2021/06/10 08:41:26;;;;;;;11.80;8.85;;;22.50;99.90;;;;;;4971953;28;20170;-79
2021/06/10 08:43:52;;;;;;;9.90;8.35;;;22.70;99.90;;;;;;4973701;28;20022;-79
2021/06/10 08:46:20;;;;;;;16.52;8.77;;;23.00;99.90;;;;;;4973610;28;20030;-78
2021/06/10 08:48:49;;;;;;;10.63;8.88;;;23.10;99.90;;;;;;4988657;28;20121;-78
2021/06/10 08:51:15;;;;;;;9.73;7.63;;;23.00;99.90;;;;;;4973971;28;20049;-79
2021/06/10 08:53:41;;;;;;;12.07;7.38;;;23.10;99.90;;;;;;4956073;28;20035;-78
2021/06/10 08:56:06;;;;;;;11.38;7.78;;;23.40;99.90;;;;;;4954401;29;20102;-80
2021/06/10 08:58:37;;;;;;;9.93;6.70;;;23.30;99.90;;;;;;4970053;28;20031;-80
2021/06/10 09:01:03;;;;;;;10.77;7.25;;;23.20;99.90;;;;;;4973685;28;20019;-80
2021/06/10 09:03:32;;;;;;;13.73;7.13;;;23.30;99.90;;;;;;4963561;28;20054;-79
2021/06/10 09:06:05;;;;;;;10.30;7.75;;;23.50;99.90;;;;;;4969073;28;20015;-79
2021/06/10 09:08:32;;;;;;;11.10;7.10;;;23.10;99.90;;;;;;4967741;28;20483;-79
2021/06/10 09:11:13;;;;;;;10.00;7.25;;;23.20;99.90;;;;;;4968181;28;20380;-80
2021/06/10 09:13:47;;;;;;;14.20;7.55;;;23.20;99.90;;;;;;4963647;28;20041;-80
2021/06/10 09:16:32;;;;;;;;;;;23.50;99.90;;;;;;4967641;28;20023;-79
2021/06/10 09:19:02;;;;;;;12.35;8.07;;;23.40;99.90;;;;;;4969846;28;19913;-79
2021/06/10 09:21:30;;;;;;;17.42;7.82;;;23.60;99.90;;;;;;4967706;28;20507;-79
2021/06/10 09:24:13;;;;;;;13.88;8.50;;;23.60;99.90;;;;;;4966523;28;20117;-79
2021/06/10 09:26:39;;;;;;;16.33;8.43;;;24.00;99.90;;;;;;4975864;28;20023;-79
2021/06/10 09:29:05;;;;;;;13.35;7.90;;;24.00;99.90;;;;;;4969928;28;20034;-79
2021/06/10 09:31:32;;;;;;;12.57;8.60;;;24.00;99.90;;;;;;4970096;28;20042;-79
2021/06/10 09:33:59;;;;;;;12.70;8.50;;;24.10;99.90;;;;;;4969501;28;20646;-79
2021/06/10 09:36:25;;;;;;;14.20;9.15;;;24.00;99.90;;;;;;4971952;28;20050;-79
2021/06/10 09:39:07;;;;;;;17.27;10.07;;;24.00;99.90;;;;;;4969744;28;20031;-79
2021/06/10 09:41:33;;;;;;;12.07;8.98;;;24.00;99.90;;;;;;4968155;28;20368;-78
2021/06/10 09:43:59;;;;;;;17.63;10.98;;;24.00;99.90;;;;;;4969184;28;20038;-79
2021/06/10 09:46:24;;;;;;;14.52;9.32;;;23.80;99.90;;;;;;4968627;28;20031;-79
2021/06/10 09:49:05;;;;;;;22.13;9.75;;;23.80;99.90;;;;;;4968519;28;20023;-80
2021/06/10 09:51:30;;;;;;;17.38;9.35;;;23.90;99.90;;;;;;4970128;28;20053;-80
2021/06/10 09:53:58;;;;;;;12.23;9.40;;;23.90;99.90;;;;;;4974318;28;20118;-78
2021/06/10 09:56:24;;;;;;;11.40;7.75;;;23.90;99.90;;;;;;4967340;28;20721;-79
2021/06/10 09:58:55;;;;;;;11.40;9.32;;;23.70;99.90;;;;;;4969853;28;20031;-79
2021/06/10 10:01:22;;;;;;;14.13;9.65;;;23.90;99.90;;;;;;4968684;28;20034;-79
2021/06/10 10:03:49;;;;;;;14.98;9.60;;;24.00;99.90;;;;;;4969111;28;20031;-78
2021/06/10 10:06:24;;;;;;;12.10;9.80;;;23.90;99.90;;;;;;4967424;28;20026;-78
2021/06/10 10:09:04;;;;;;;13.38;10.77;;;24.00;99.90;;;;;;4970119;28;20070;-78
2021/06/10 10:11:32;;;;;;;13.75;10.00;;;24.40;99.90;;;;;;4969800;28;20031;-81
2021/06/10 10:14:01;;;;;;;16.23;8.77;;;24.30;99.90;;;;;;4969352;28;20023;-80
2021/06/10 10:16:31;;;;;;;11.52;8.20;;;24.30;99.90;;;;;;4968632;28;20078;-80
2021/06/10 10:18:58;;;;;;;16.88;9.98;;;24.00;99.90;;;;;;4968902;28;20053;-79
2021/06/10 10:21:28;;;;;;;13.00;8.52;;;24.00;99.90;;;;;;4968291;28;20482;-80
2021/06/10 10:24:02;;;;;;;12.60;8.48;;;24.20;99.90;;;;;;4970901;28;20047;-80
2021/06/10 10:26:29;;;;;;;13.55;8.70;;;23.90;99.90;;;;;;4972376;28;20035;-80
2021/06/10 10:28:55;;;;;;;10.52;7.32;;;23.90;99.90;;;;;;4972451;28;20038;-80
2021/06/10 10:31:21;;;;;;;13.23;9.77;;;24.20;99.90;;;;;;4972795;28;20031;-80
2021/06/10 10:33:49;;;;;;;14.82;7.97;;;23.90;99.90;;;;;;4972503;28;20059;-80
2021/06/10 10:36:26;;;;;;;12.52;6.55;;;23.90;99.90;;;;;;4971304;28;20041;-80
2021/06/10 10:39:06;;;;;;;7.85;5.75;;;23.60;99.90;;;;;;4972447;28;20029;-81
2021/06/10 10:41:32;;;;;;;7.85;5.72;;;23.80;99.90;;;;;;4971408;28;20034;-81
2021/06/10 10:44:08;;;;;;;9.65;4.78;;;23.80;99.90;;;;;;4971111;28;20158;-80
2021/06/10 10:46:34;;;;;;;5.80;4.50;;;23.90;99.90;;;;;;4972443;28;20031;-82
2021/06/10 10:49:00;;;;;;;11.65;5.32;;;23.80;99.90;;;;;;4971028;28;20507;-81
2021/06/10 10:51:38;;;;;;;8.77;5.22;;;23.80;99.90;;;;;;4972473;28;20027;-81
2021/06/10 10:54:24;;;;;;;5.65;3.47;;;24.10;99.90;;;;;;4972514;28;20023;-82
2021/06/10 10:56:50;;;;;;;6.40;4.28;;;24.20;99.90;;;;;;4975522;28;20030;-82
2021/06/10 10:59:20;;;;;;;5.07;2.90;;;24.40;99.90;;;;;;4975505;28;20043;-80
2021/06/10 11:02:05;;;;;;;6.13;3.00;;;24.60;99.90;;;;;;4975861;28;20069;-80
2021/06/10 11:04:50;;;;;;;5.22;3.75;;;24.50;99.90;;;;;;4975445;28;20034;-80
2021/06/10 11:07:35;;;;;;;10.70;3.65;;;24.30;99.90;;;;;;4969774;28;20109;-81
2021/06/10 11:10:06;;;;;;;9.07;3.22;;;24.30;99.90;;;;;;4967493;28;20042;-80
2021/06/10 11:12:40;;;;;;;5.82;3.20;;;24.10;99.90;;;;;;4973684;28;20022;-80
2021/06/10 11:15:08;;;;;;;9.32;3.67;;;24.20;99.90;;;;;;4971415;28;20054;-81
2021/06/10 11:17:45;;;;;;;7.68;3.97;;;24.00;99.90;;;;;;4969803;28;20066;-81
2021/06/10 11:20:16;;;;;;;10.98;5.28;;;24.20;99.90;;;;;;4970808;28;20077;-80
2021/06/10 11:22:50;;;;;;;8.32;5.72;;;24.20;99.90;;;;;;4969777;28;20487;-80
2021/06/10 11:25:29;;;;;;;11.77;4.63;;;24.30;99.90;;;;;;4970396;28;20052;-81
2021/06/10 11:28:07;;;;;;;15.07;6.50;;;24.60;99.90;;;;;;4963485;28;20495;-80
2021/06/10 11:30:33;;;;;;;6.50;4.45;;;24.50;99.90;;;;;;4971248;28;20038;-81
2021/06/10 11:33:16;;;;;;;6.72;4.15;;;24.80;99.90;;;;;;4970933;28;20063;-80
2021/06/10 11:35:42;;;;;;;5.03;4.20;;;24.90;99.90;;;;;;4970999;28;20506;-81
2021/06/10 11:38:22;;;;;;;6.70;4.35;;;25.10;99.90;;;;;;4971074;28;20042;-80
2021/06/10 11:41:00;;;;;;;6.55;3.20;;;25.00;99.90;;;;;;4971164;28;20027;-82
2021/06/10 11:43:26;;;;;;;5.50;3.70;;;25.10;99.90;;;;;;4969631;28;20059;-82
2021/06/10 11:46:03;;;;;;;8.38;3.83;;;25.10;99.90;;;;;;4971569;28;20019;-81
2021/06/10 11:48:32;;;;;;;5.65;3.67;;;25.20;99.90;;;;;;4970169;28;20062;-82
2021/06/10 11:50:58;;;;;;;8.27;3.90;;;25.30;99.90;;;;;;4968249;28;20027;-79
2021/06/10 11:53:27;;;;;;;4.63;3.80;;;25.30;99.90;;;;;;4955751;29;20102;-79
2021/06/10 11:55:56;;;;;;;5.20;4.05;;;25.50;99.90;;;;;;4970145;28;20031;-79
2021/06/10 11:58:26;;;;;;;10.60;3.90;;;25.50;99.90;;;;;;4970368;28;20074;-80
2021/06/10 12:00:52;;;;;;;5.70;3.35;;;25.70;99.90;;;;;;4968534;28;20051;-80
2021/06/10 12:03:18;;;;;;;10.57;4.22;;;25.90;99.90;;;;;;4974750;28;20019;-81
2021/06/10 12:05:51;;;;;;;5.85;3.65;;;26.30;99.90;;;;;;4973767;28;20029;-80
2021/06/10 12:08:22;;;;;;;6.93;3.88;;;26.30;99.90;;;;;;4973381;28;20027;-80
2021/06/10 12:11:13;;;;;;;5.85;3.80;;;26.50;99.90;;;;;;4989240;28;20058;-80
2021/06/10 12:13:51;;;;;;;5.05;3.28;;;26.40;99.90;;;;;;4973350;28;20042;-80
2021/06/10 12:16:18;;;;;;;7.30;4.10;;;26.50;99.90;;;;;;4974596;28;20117;-79
2021/06/10 12:18:49;;;;;;;8.52;3.80;;;26.40;99.90;;;;;;4973002;28;20482;-80
2021/06/10 12:21:26;;;;;;;13.15;4.03;;;26.40;99.90;;;;;;4974179;28;20047;-81
2021/06/10 12:23:58;;;;;;;12.27;4.80;;;26.90;99.90;;;;;;4972661;28;20054;-80
2021/06/10 12:26:26;;;;;;;8.25;5.18;;;27.30;99.90;;;;;;4989037;28;20027;-80
2021/06/10 12:28:57;;;;;;;11.45;4.95;;;27.10;99.90;;;;;;4972665;28;20046;-80
2021/06/10 12:31:24;;;;;;;8.10;4.53;;;27.00;99.90;;;;;;4973243;28;20035;-80
2021/06/10 12:33:50;;;;;;;6.40;4.50;;;27.00;99.90;;;;;;4972194;28;20499;-79
2021/06/10 12:36:32;;;;;;;7.43;5.18;;;27.00;99.90;;;;;;4973907;28;20027;-80
2021/06/10 12:39:08;;;;;;;8.82;5.22;;;26.90;99.90;;;;;;4974076;28;20027;-80